Las Vegas, NV (89121)

1:35 AM PDT on March 25, 2017 (GMT -0700)
Paradise OBies | | Change Station

Elev 1801 ft 36.11 °N, 115.08 °W | Updated 51 seconds ago

Mostly Cloudy
Mostly Cloudy
67.8 °F
Feels Like 67.8 °F
N
2.0
Wind Variable Wind from SSE

Today
High -- | Low -- °F
--% Chance of Precip.
Yesterday
High -- | Low -- °F
Precip. -- in
Pressure 29.95 in
Visibility 10.0 miles
Clouds Scattered Clouds 14000 ft
Overcast 25000 ft
Dew Point 31 °F
Humidity 25%
Rainfall 0.00 in
Snow Depth Not available.
6:36 AM 6:56 PM
Waning Crescent, 9% visible
METAR KLAS 250756Z 14007KT 10SM SCT140 OVC250 19/M06 A2999 RMK AO2 SLP141 T01941056 402610106
Pressure 29.95 in
Visibility 10.0 miles
Clouds Scattered Clouds 14000 ft
Overcast 25000 ft
Dew Point 31 °F
Humidity 25%
Rainfall 0.00 in
Snow Depth Not available.
6:36 AM 6:56 PM
Waning Crescent, 9% visible
METAR KLAS 250756Z 14007KT 10SM SCT140 OVC250 19/M06 A2999 RMK AO2 SLP141 T01941056 402610106

Get Severe Weather Alerts

Thanks for signing up!

Be on the lookout for a verification email in your inbox.

You'll start receiving the daily forecast at 8 AM.

×

10-Day Weather Forecast

Almanac

Astronomy

Mar. 25, 2017 Rise Set
Actual Time
Civil Twilight
Nautical Twilight
Astronomical Twilight
Moon
Length of Visible Light
Length of Day
Tomorrow will be .
, % of the Moon is Illuminated

Today's Extremes

State Highs State Lows

Community

WunderPhotos

Upload Photos

1,962,540 photos uploaded!

WunderBlog® & News

Nearby

Air Quality

  Air Quality AQ Index Pollutant
Not available.

Snow Depth

Station Depth Elevation

Earthquake Activity

City Distance Mag. Time & Date
Minimum magnitude displayed is 2.5.

Earthquake Activity

City Distance Mag. Time & Date
Minimum magnitude displayed is 2.5.

Coastal Water Temperatures

Place Temperature

Stations

Nearby Weather Stations

Station Location Temp. Windchill Dew Point Humidity Wind Precip. Elev Updated Type
                   

Watches & Warnings

There are currently no watches in effect.